sensor_id;sensor_type;location;lat;lon;timestamp;pressure;altitude;pressure_sealevel;temperature;humidity
72798;BME280;61084;55.816;37.036;2023-05-24T00:02:07;99497.91;;;16.57;68.23
72798;BME280;61084;55.816;37.036;2023-05-24T00:04:33;99495.53;;;16.54;68.53
72798;BME280;61084;55.816;37.036;2023-05-24T00:06:59;99501.88;;;16.52;68.58
72798;BME280;61084;55.816;37.036;2023-05-24T00:09:29;99493.09;;;16.51;68.45
72798;BME280;61084;55.816;37.036;2023-05-24T00:11:55;99487.78;;;16.51;69.02
72798;BME280;61084;55.816;37.036;2023-05-24T00:14:21;99489.81;;;16.48;68.64
72798;BME280;61084;55.816;37.036;2023-05-24T00:16:47;99480.06;;;16.48;68.79
72798;BME280;61084;55.816;37.036;2023-05-24T00:19:13;99481.94;;;16.46;69.10
72798;BME280;61084;55.816;37.036;2023-05-24T00:21:44;99473.28;;;16.44;68.85
72798;BME280;61084;55.816;37.036;2023-05-24T00:24:10;99478.47;;;16.46;69.04
72798;BME280;61084;55.816;37.036;2023-05-24T00:26:36;99479.44;;;16.45;69.13
72798;BME280;61084;55.816;37.036;2023-05-24T00:29:04;99481.13;;;16.46;68.81
72798;BME280;61084;55.816;37.036;2023-05-24T00:31:31;99468.81;;;16.45;68.85
72798;BME280;61084;55.816;37.036;2023-05-24T00:33:56;99468.69;;;16.46;68.99
72798;BME280;61084;55.816;37.036;2023-05-24T00:36:22;99471.47;;;16.45;68.99
72798;BME280;61084;55.816;37.036;2023-05-24T00:38:48;99470.63;;;16.44;69.05
72798;BME280;61084;55.816;37.036;2023-05-24T00:41:15;99465.31;;;16.44;68.99
72798;BME280;61084;55.816;37.036;2023-05-24T00:43:41;99457.50;;;16.43;69.01
72798;BME280;61084;55.816;37.036;2023-05-24T00:46:19;99465.44;;;16.43;69.27
72798;BME280;61084;55.816;37.036;2023-05-24T00:48:48;99461.94;;;16.42;69.06
72798;BME280;61084;55.816;37.036;2023-05-24T00:51:14;99462.81;;;16.43;69.03
72798;BME280;61084;55.816;37.036;2023-05-24T00:53:46;99462.69;;;16.44;69.04
72798;BME280;61084;55.816;37.036;2023-05-24T00:56:13;99468.69;;;16.46;69.22
72798;BME280;61084;55.816;37.036;2023-05-24T00:58:39;99462.59;;;16.46;69.00
72798;BME280;61084;55.816;37.036;2023-05-24T01:01:05;99458.22;;;16.45;69.75
72798;BME280;61084;55.816;37.036;2023-05-24T01:03:32;99460.75;;;16.46;69.31
72798;BME280;61084;55.816;37.036;2023-05-24T01:06:00;99455.44;;;16.46;69.19
72798;BME280;61084;55.816;37.036;2023-05-24T01:11:16;99448.59;;;16.44;69.54
72798;BME280;61084;55.816;37.036;2023-05-24T01:16:55;99452.31;;;16.41;69.76
72798;BME280;61084;55.816;37.036;2023-05-24T01:22:37;99442.44;;;16.43;69.81
72798;BME280;61084;55.816;37.036;2023-05-24T01:27:37;99441.47;;;16.44;69.76
72798;BME280;61084;55.816;37.036;2023-05-24T01:30:04;99437.88;;;16.45;69.60
72798;BME280;61084;55.816;37.036;2023-05-24T01:32:31;99435.97;;;16.47;69.78
72798;BME280;61084;55.816;37.036;2023-05-24T01:34:57;99430.66;;;16.47;69.88
72798;BME280;61084;55.816;37.036;2023-05-24T01:37:23;99433.19;;;16.49;69.73
72798;BME280;61084;55.816;37.036;2023-05-24T01:39:49;99428.94;;;16.46;69.52
72798;BME280;61084;55.816;37.036;2023-05-24T01:42:25;99433.19;;;16.49;69.90
72798;BME280;61084;55.816;37.036;2023-05-24T01:45:10;99444.63;;;16.49;69.87
72798;BME280;61084;55.816;37.036;2023-05-24T01:48:13;99436.69;;;16.49;70.01
72798;BME280;61084;55.816;37.036;2023-05-24T01:51:00;99433.19;;;16.49;69.94
72798;BME280;61084;55.816;37.036;2023-05-24T01:53:33;99432.34;;;16.48;69.91
72798;BME280;61084;55.816;37.036;2023-05-24T01:56:02;99434.16;;;16.48;69.90
72798;BME280;61084;55.816;37.036;2023-05-24T01:58:31;99437.66;;;16.48;70.01
72798;BME280;61084;55.816;37.036;2023-05-24T02:00:58;99434.16;;;16.48;70.21
72798;BME280;61084;55.816;37.036;2023-05-24T02:03:25;99435.22;;;16.45;70.33
72798;BME280;61084;55.816;37.036;2023-05-24T02:05:50;99430.78;;;16.46;70.14
72798;BME280;61084;55.816;37.036;2023-05-24T02:08:18;99435.09;;;16.47;70.10
72798;BME280;61084;55.816;37.036;2023-05-24T02:10:44;99429.72;;;16.48;70.09
72798;BME280;61084;55.816;37.036;2023-05-24T02:13:10;99424.31;;;16.50;69.92
72798;BME280;61084;55.816;37.036;2023-05-24T02:15:36;99421.66;;;16.50;70.04
72798;BME280;61084;55.816;37.036;2023-05-24T02:18:02;99426.97;;;16.50;70.33
72798;BME280;61084;55.816;37.036;2023-05-24T02:20:49;99430.47;;;16.50;70.21
72798;BME280;61084;55.816;37.036;2023-05-24T02:23:15;99424.19;;;16.51;70.50
72798;BME280;61084;55.816;37.036;2023-05-24T02:25:41;99429.25;;;16.54;70.39
72798;BME280;61084;55.816;37.036;2023-05-24T02:28:07;99420.25;;;16.57;70.07
72798;BME280;61084;55.816;37.036;2023-05-24T02:30:33;99428.91;;;16.59;70.20
72798;BME280;61084;55.816;37.036;2023-05-24T02:32:59;99427.94;;;16.60;70.16
72798;BME280;61084;55.816;37.036;2023-05-24T02:35:25;99429.63;;;16.61;70.29
72798;BME280;61084;55.816;37.036;2023-05-24T02:37:52;99432.16;;;16.63;70.54
72798;BME280;61084;55.816;37.036;2023-05-24T02:40:17;99433.00;;;16.63;70.12
72798;BME280;61084;55.816;37.036;2023-05-24T02:42:43;99436.50;;;16.64;70.23
72798;BME280;61084;55.816;37.036;2023-05-24T02:45:09;99428.44;;;16.65;70.41
72798;BME280;61084;55.816;37.036;2023-05-24T02:47:35;99432.75;;;16.66;70.22
72798;BME280;61084;55.816;37.036;2023-05-24T02:50:01;99428.19;;;16.68;70.42
72798;BME280;61084;55.816;37.036;2023-05-24T02:52:31;99426.50;;;16.67;70.39
72798;BME280;61084;55.816;37.036;2023-05-24T02:54:58;99419.41;;;16.68;70.55
72798;BME280;61084;55.816;37.036;2023-05-24T02:57:24;99418.44;;;16.69;70.66
72798;BME280;61084;55.816;37.036;2023-05-24T02:59:50;99420.00;;;16.71;70.86
72798;BME280;61084;55.816;37.036;2023-05-24T03:02:15;99423.25;;;16.75;70.53
72798;BME280;61084;55.816;37.036;2023-05-24T03:04:44;99418.78;;;16.75;70.70
72798;BME280;61084;55.816;37.036;2023-05-24T03:07:11;99417.72;;;16.78;70.67
72798;BME280;61084;55.816;37.036;2023-05-24T03:09:39;99414.13;;;16.79;70.87
72798;BME280;61084;55.816;37.036;2023-05-24T03:12:05;99414.72;;;16.82;70.58
72798;BME280;61084;55.816;37.036;2023-05-24T03:14:32;99418.09;;;16.84;70.57
72798;BME280;61084;55.816;37.036;2023-05-24T03:16:59;99416.16;;;16.86;71.35
72798;BME280;61084;55.816;37.036;2023-05-24T03:19:25;99419.78;;;16.85;70.99
72798;BME280;61084;55.816;37.036;2023-05-24T03:21:51;99413.50;;;16.86;71.15
72798;BME280;61084;55.816;37.036;2023-05-24T03:24:17;99414.00;;;16.91;70.93
72798;BME280;61084;55.816;37.036;2023-05-24T03:26:43;99413.38;;;16.99;70.73
72798;BME280;61084;55.816;37.036;2023-05-24T03:29:09;99403.25;;;17.04;70.60
72798;BME280;61084;55.816;37.036;2023-05-24T03:31:38;99403.75;;;17.09;70.76
72798;BME280;61084;55.816;37.036;2023-05-24T03:34:04;99395.53;;;17.12;70.53
72798;BME280;61084;55.816;37.036;2023-05-24T03:36:32;99390.94;;;17.14;70.28
72798;BME280;61084;55.816;37.036;2023-05-24T03:38:58;99393.59;;;17.14;70.68
72798;BME280;61084;55.816;37.036;2023-05-24T03:41:25;99393.34;;;17.17;70.75
72798;BME280;61084;55.816;37.036;2023-05-24T03:43:52;99396.38;;;17.23;70.46
72798;BME280;61084;55.816;37.036;2023-05-24T03:46:19;99393.94;;;17.31;70.35
72798;BME280;61084;55.816;37.036;2023-05-24T03:48:47;99400.31;;;17.40;70.42
72798;BME280;61084;55.816;37.036;2023-05-24T03:51:13;99404.16;;;17.47;70.56
72798;BME280;61084;55.816;37.036;2023-05-24T03:53:39;99408.88;;;17.55;70.30
72798;BME280;61084;55.816;37.036;2023-05-24T03:56:05;99405.00;;;17.59;70.24
72798;BME280;61084;55.816;37.036;2023-05-24T03:58:31;99403.94;;;17.61;69.94
72798;BME280;61084;55.816;37.036;2023-05-24T04:00:57;99401.84;;;17.65;69.97
72798;BME280;61084;55.816;37.036;2023-05-24T04:03:23;99405.09;;;17.68;69.89
72798;BME280;61084;55.816;37.036;2023-05-24T04:05:50;99403.91;;;17.72;69.74
72798;BME280;61084;55.816;37.036;2023-05-24T04:08:16;99397.22;;;17.78;69.69
72798;BME280;61084;55.816;37.036;2023-05-24T04:11:01;99391.03;;;17.88;69.83
72798;BME280;61084;55.816;37.036;2023-05-24T04:13:26;99390.97;;;17.99;69.87
72798;BME280;61084;55.816;37.036;2023-05-24T04:18:38;99385.84;;;18.07;69.56
72798;BME280;61084;55.816;37.036;2023-05-24T04:21:06;99390.69;;;18.14;69.35
72798;BME280;61084;55.816;37.036;2023-05-24T04:23:32;99386.91;;;18.16;69.42
72798;BME280;61084;55.816;37.036;2023-05-24T04:28:42;99388.47;;;18.19;69.11
72798;BME280;61084;55.816;37.036;2023-05-24T04:31:10;99387.22;;;18.23;69.02
72798;BME280;61084;55.816;37.036;2023-05-24T04:33:56;99385.03;;;18.28;68.87
72798;BME280;61084;55.816;37.036;2023-05-24T04:36:42;99390.09;;;18.31;69.11
72798;BME280;61084;55.816;37.036;2023-05-24T04:41:54;99391.66;;;18.33;68.59
72798;BME280;61084;55.816;37.036;2023-05-24T04:44:23;99393.06;;;18.37;68.67
72798;BME280;61084;55.816;37.036;2023-05-24T04:49:52;99396.44;;;18.39;68.26
72798;BME280;61084;55.816;37.036;2023-05-24T04:52:18;99397.00;;;18.43;68.09
72798;BME280;61084;55.816;37.036;2023-05-24T04:54:44;99405.84;;;18.43;68.33
72798;BME280;61084;55.816;37.036;2023-05-24T04:57:10;99401.03;;;18.48;68.23
72798;BME280;61084;55.816;37.036;2023-05-24T04:59:36;99400.72;;;18.51;68.25
72798;BME280;61084;55.816;37.036;2023-05-24T05:02:02;99400.63;;;18.53;68.09
72798;BME280;61084;55.816;37.036;2023-05-24T05:04:28;99397.69;;;18.56;67.75
72798;BME280;61084;55.816;37.036;2023-05-24T05:07:12;99401.50;;;18.63;67.97
72798;BME280;61084;55.816;37.036;2023-05-24T05:09:38;99403.91;;;18.66;67.67
72798;BME280;61084;55.816;37.036;2023-05-24T05:12:04;99409.81;;;18.69;67.58
72798;BME280;61084;55.816;37.036;2023-05-24T05:14:30;99411.47;;;18.70;67.45
72798;BME280;61084;55.816;37.036;2023-05-24T05:16:55;99404.09;;;18.74;67.51
72798;BME280;61084;55.816;37.036;2023-05-24T05:19:22;99413.50;;;18.78;67.63
72798;BME280;61084;55.816;37.036;2023-05-24T05:21:48;99416.59;;;18.83;67.45
72798;BME280;61084;55.816;37.036;2023-05-24T05:24:14;99412.00;;;18.85;67.12
72798;BME280;61084;55.816;37.036;2023-05-24T05:26:41;99416.91;;;18.90;67.20
72798;BME280;61084;55.816;37.036;2023-05-24T05:29:07;99408.53;;;18.94;67.41
72798;BME280;61084;55.816;37.036;2023-05-24T05:31:51;99414.41;;;18.98;67.18
72798;BME280;61084;55.816;37.036;2023-05-24T05:34:35;99422.97;;;19.01;67.54
72798;BME280;61084;55.816;37.036;2023-05-24T05:37:01;99422.72;;;19.04;67.22
72798;BME280;61084;55.816;37.036;2023-05-24T05:39:27;99418.81;;;19.08;67.03
72798;BME280;61084;55.816;37.036;2023-05-24T05:44:57;99413.94;;;19.13;67.10
72798;BME280;61084;55.816;37.036;2023-05-24T05:47:22;99413.63;;;19.16;66.91
72798;BME280;61084;55.816;37.036;2023-05-24T05:49:48;99402.19;;;19.16;66.68
72798;BME280;61084;55.816;37.036;2023-05-24T05:52:14;99412.69;;;19.17;66.65
72798;BME280;61084;55.816;37.036;2023-05-24T05:54:40;99413.53;;;19.18;66.95
72798;BME280;61084;55.816;37.036;2023-05-24T05:57:06;99415.78;;;19.22;66.85
72798;BME280;61084;55.816;37.036;2023-05-24T05:59:34;99419.00;;;19.26;66.76
72798;BME280;61084;55.816;37.036;2023-05-24T06:02:02;99411.03;;;19.26;66.67
72798;BME280;61084;55.816;37.036;2023-05-24T06:04:28;99414.66;;;19.25;66.64
72798;BME280;61084;55.816;37.036;2023-05-24T06:09:38;99404.84;;;19.25;66.63
72798;BME280;61084;55.816;37.036;2023-05-24T06:12:04;99397.00;;;19.24;66.41
72798;BME280;61084;55.816;37.036;2023-05-24T06:14:48;99400.63;;;19.23;66.51
72798;BME280;61084;55.816;37.036;2023-05-24T06:17:15;99404.84;;;19.25;66.72
72798;BME280;61084;55.816;37.036;2023-05-24T06:19:41;99403.59;;;19.29;66.42
72798;BME280;61084;55.816;37.036;2023-05-24T06:24:54;99406.97;;;19.31;66.15
72798;BME280;61084;55.816;37.036;2023-05-24T06:27:21;99400.81;;;19.31;66.52
72798;BME280;61084;55.816;37.036;2023-05-24T06:29:47;99396.09;;;19.34;66.52
72798;BME280;61084;55.816;37.036;2023-05-24T06:32:13;99397.66;;;19.37;66.81
72798;BME280;61084;55.816;37.036;2023-05-24T06:34:39;99400.03;;;19.40;66.46
72798;BME280;61084;55.816;37.036;2023-05-24T06:40:09;99395.72;;;19.48;66.20
72798;BME280;61084;55.816;37.036;2023-05-24T06:42:35;99391.09;;;19.50;65.71
72798;BME280;61084;55.816;37.036;2023-05-24T06:45:02;99397.13;;;19.52;65.74
72798;BME280;61084;55.816;37.036;2023-05-24T06:47:31;99394.31;;;19.54;65.73
72798;BME280;61084;55.816;37.036;2023-05-24T06:49:58;99398.66;;;19.55;65.63
72798;BME280;61084;55.816;37.036;2023-05-24T06:52:25;99397.94;;;19.53;65.68
72798;BME280;61084;55.816;37.036;2023-05-24T06:57:36;99406.66;;;19.55;65.98
72798;BME280;61084;55.816;37.036;2023-05-24T07:00:02;99403.16;;;19.54;65.68
72798;BME280;61084;55.816;37.036;2023-05-24T07:02:51;99409.44;;;19.53;66.14
72798;BME280;61084;55.816;37.036;2023-05-24T07:05:17;99408.47;;;19.54;65.73
72798;BME280;61084;55.816;37.036;2023-05-24T07:07:43;99408.88;;;19.60;65.67
72798;BME280;61084;55.816;37.036;2023-05-24T07:10:10;99412.28;;;19.62;65.62
72798;BME280;61084;55.816;37.036;2023-05-24T07:12:36;99410.31;;;19.64;65.71
72798;BME280;61084;55.816;37.036;2023-05-24T07:15:06;99412.13;;;19.63;65.86
72798;BME280;61084;55.816;37.036;2023-05-24T07:17:33;99408.63;;;19.63;65.65
72798;BME280;61084;55.816;37.036;2023-05-24T07:19:59;99416.88;;;19.60;65.62
72798;BME280;61084;55.816;37.036;2023-05-24T07:22:26;99414.09;;;19.61;65.86
72798;BME280;61084;55.816;37.036;2023-05-24T07:24:54;99411.44;;;19.61;65.65
72798;BME280;61084;55.816;37.036;2023-05-24T07:27:20;99400.47;;;19.54;65.89
72798;BME280;61084;55.816;37.036;2023-05-24T07:29:47;99407.88;;;19.51;66.14
72798;BME280;61084;55.816;37.036;2023-05-24T07:32:15;99412.50;;;19.49;65.94
72798;BME280;61084;55.816;37.036;2023-05-24T07:34:41;99410.00;;;19.47;66.03
72798;BME280;61084;55.816;37.036;2023-05-24T07:37:08;99415.16;;;19.49;66.18
72798;BME280;61084;55.816;37.036;2023-05-24T07:39:34;99421.34;;;19.49;66.24
72798;BME280;61084;55.816;37.036;2023-05-24T07:41:59;99418.53;;;19.51;66.39
72798;BME280;61084;55.816;37.036;2023-05-24T07:44:26;99423.88;;;19.51;66.33
72798;BME280;61084;55.816;37.036;2023-05-24T07:46:52;99420.50;;;19.49;66.26
72798;BME280;61084;55.816;37.036;2023-05-24T07:49:19;99420.19;;;19.42;66.61
72798;BME280;61084;55.816;37.036;2023-05-24T07:51:44;99423.84;;;19.41;66.56
72798;BME280;61084;55.816;37.036;2023-05-24T07:54:10;99415.44;;;19.36;66.67
72798;BME280;61084;55.816;37.036;2023-05-24T07:56:36;99415.56;;;19.35;67.10
72798;BME280;61084;55.816;37.036;2023-05-24T07:59:02;99417.84;;;19.39;66.76
72798;BME280;61084;55.816;37.036;2023-05-24T08:01:33;99422.03;;;19.42;67.17
72798;BME280;61084;55.816;37.036;2023-05-24T08:04:00;99423.31;;;19.47;66.99
72798;BME280;61084;55.816;37.036;2023-05-24T08:06:29;99420.38;;;19.50;67.23
72798;BME280;61084;55.816;37.036;2023-05-24T08:08:57;99431.44;;;19.55;67.37
72798;BME280;61084;55.816;37.036;2023-05-24T08:11:23;99425.59;;;19.62;68.02
72798;BME280;61084;55.816;37.036;2023-05-24T08:13:49;99429.50;;;19.67;67.52
72798;BME280;61084;55.816;37.036;2023-05-24T08:16:17;99428.84;;;19.75;66.90
72798;BME280;61084;55.816;37.036;2023-05-24T08:18:42;99431.91;;;19.80;66.76
72798;BME280;61084;55.816;37.036;2023-05-24T08:21:08;99444.13;;;19.82;66.41
72798;BME280;61084;55.816;37.036;2023-05-24T08:23:34;99438.78;;;19.82;66.36
72798;BME280;61084;55.816;37.036;2023-05-24T08:26:01;99438.53;;;19.85;66.45
72798;BME280;61084;55.816;37.036;2023-05-24T08:28:27;99437.13;;;19.91;66.39
72798;BME280;61084;55.816;37.036;2023-05-24T08:30:53;99433.06;;;19.96;66.42
72798;BME280;61084;55.816;37.036;2023-05-24T08:33:19;99437.69;;;20.04;66.21
72798;BME280;61084;55.816;37.036;2023-05-24T08:35:48;99439.78;;;20.10;66.23
72798;BME280;61084;55.816;37.036;2023-05-24T08:38:15;99444.69;;;20.14;66.11
72798;BME280;61084;55.816;37.036;2023-05-24T08:40:41;99437.41;;;20.16;65.85
72798;BME280;61084;55.816;37.036;2023-05-24T08:43:08;99442.72;;;20.16;65.91
72798;BME280;61084;55.816;37.036;2023-05-24T08:45:39;99440.06;;;20.16;66.35
72798;BME280;61084;55.816;37.036;2023-05-24T08:48:07;99450.03;;;20.14;65.96
72798;BME280;61084;55.816;37.036;2023-05-24T08:50:34;99446.25;;;20.17;66.12
72798;BME280;61084;55.816;37.036;2023-05-24T08:53:01;99444.16;;;20.20;66.09
72798;BME280;61084;55.816;37.036;2023-05-24T08:55:29;99437.69;;;20.13;65.83
72798;BME280;61084;55.816;37.036;2023-05-24T08:57:56;99441.63;;;20.09;65.88
72798;BME280;61084;55.816;37.036;2023-05-24T09:00:22;99440.50;;;20.12;66.00
72798;BME280;61084;55.816;37.036;2023-05-24T09:02:49;99436.00;;;20.12;66.22
72798;BME280;61084;55.816;37.036;2023-05-24T09:05:15;99437.41;;;20.16;66.29
72798;BME280;61084;55.816;37.036;2023-05-24T09:07:45;99434.47;;;20.19;66.27
72798;BME280;61084;55.816;37.036;2023-05-24T09:10:11;99434.34;;;20.21;65.95
72798;BME280;61084;55.816;37.036;2023-05-24T09:12:38;99431.41;;;20.24;65.82
72798;BME280;61084;55.816;37.036;2023-05-24T09:15:06;99431.25;;;20.25;65.75
72798;BME280;61084;55.816;37.036;2023-05-24T09:17:36;99433.78;;;20.27;65.96
72798;BME280;61084;55.816;37.036;2023-05-24T09:20:05;99430.84;;;20.30;66.33
72798;BME280;61084;55.816;37.036;2023-05-24T09:22:33;99425.25;;;20.33;66.46
72798;BME280;61084;55.816;37.036;2023-05-24T09:25:03;99423.38;;;20.34;66.14
72798;BME280;61084;55.816;37.036;2023-05-24T09:27:32;99431.00;;;20.28;65.63
72798;BME280;61084;55.816;37.036;2023-05-24T09:29:58;99424.25;;;20.24;65.84
72798;BME280;61084;55.816;37.036;2023-05-24T09:32:26;99432.13;;;20.26;66.16
72798;BME280;61084;55.816;37.036;2023-05-24T09:34:56;99430.16;;;20.28;66.23
72798;BME280;61084;55.816;37.036;2023-05-24T09:37:23;99431.53;;;20.32;66.38
72798;BME280;61084;55.816;37.036;2023-05-24T09:39:52;99427.59;;;20.36;66.26
72798;BME280;61084;55.816;37.036;2023-05-24T09:42:19;99427.31;;;20.39;65.82
72798;BME280;61084;55.816;37.036;2023-05-24T09:45:04;99421.00;;;20.40;66.01
72798;BME280;61084;55.816;37.036;2023-05-24T09:47:39;99425.63;;;20.48;65.93
72798;BME280;61084;55.816;37.036;2023-05-24T09:50:11;99429.69;;;20.52;65.81
72798;BME280;61084;55.816;37.036;2023-05-24T09:52:38;99425.91;;;20.54;66.28
72798;BME280;61084;55.816;37.036;2023-05-24T09:55:18;99426.16;;;20.61;66.44
72798;BME280;61084;55.816;37.036;2023-05-24T09:58:01;99426.88;;;20.63;66.34
72798;BME280;61084;55.816;37.036;2023-05-24T10:00:39;99424.47;;;20.69;66.36
72798;BME280;61084;55.816;37.036;2023-05-24T10:03:08;99435.41;;;20.76;65.94
72798;BME280;61084;55.816;37.036;2023-05-24T10:05:35;99437.78;;;20.79;65.82
72798;BME280;61084;55.816;37.036;2023-05-24T10:08:02;99430.31;;;20.82;65.48
72798;BME280;61084;55.816;37.036;2023-05-24T10:10:32;99437.34;;;20.83;65.43
72798;BME280;61084;55.816;37.036;2023-05-24T10:12:59;99439.72;;;20.86;65.76
72798;BME280;61084;55.816;37.036;2023-05-24T10:15:26;99440.41;;;20.88;65.28
72798;BME280;61084;55.816;37.036;2023-05-24T10:17:56;99443.78;;;20.90;64.96
72798;BME280;61084;55.816;37.036;2023-05-24T10:20:22;99446.31;;;20.92;64.94
72798;BME280;61084;55.816;37.036;2023-05-24T10:23:00;99447.97;;;20.93;64.97
72798;BME280;61084;55.816;37.036;2023-05-24T10:25:27;99451.66;;;20.92;64.70
72798;BME280;61084;55.816;37.036;2023-05-24T10:27:56;99444.63;;;20.91;64.73
72798;BME280;61084;55.816;37.036;2023-05-24T10:32:58;99453.63;;;20.90;64.57
72798;BME280;61084;55.816;37.036;2023-05-24T10:35:24;99452.34;;;20.94;64.68
72798;BME280;61084;55.816;37.036;2023-05-24T10:37:52;99451.34;;;20.95;64.76
72798;BME280;61084;55.816;37.036;2023-05-24T10:40:21;99449.25;;;20.98;64.89
72798;BME280;61084;55.816;37.036;2023-05-24T10:42:50;99449.94;;;21.00;64.96
72798;BME280;61084;55.816;37.036;2023-05-24T10:45:36;99451.59;;;21.01;64.87
72798;BME280;61084;55.816;37.036;2023-05-24T10:50:39;99455.41;;;21.09;65.02
72798;BME280;61084;55.816;37.036;2023-05-24T10:53:17;99451.47;;;21.13;64.81
72798;BME280;61084;55.816;37.036;2023-05-24T10:55:57;99462.72;;;21.16;64.78
72798;BME280;61084;55.816;37.036;2023-05-24T11:00:58;99462.00;;;21.14;64.21
72798;BME280;61084;55.816;37.036;2023-05-24T11:03:24;99462.84;;;21.15;64.46
72798;BME280;61084;55.816;37.036;2023-05-24T11:05:57;99471.84;;;21.14;64.39
72798;BME280;61084;55.816;37.036;2023-05-24T11:11:02;99473.78;;;21.21;63.97
72798;BME280;61084;55.816;37.036;2023-05-24T11:13:29;99462.81;;;21.24;64.16
72798;BME280;61084;55.816;37.036;2023-05-24T11:15:55;99478.78;;;21.34;64.29
72798;BME280;61084;55.816;37.036;2023-05-24T11:18:22;99467.22;;;21.43;64.09
72798;BME280;61084;55.816;37.036;2023-05-24T11:20:48;99464.94;;;21.48;63.80
72798;BME280;61084;55.816;37.036;2023-05-24T11:23:15;99459.84;;;21.54;63.67
72798;BME280;61084;55.816;37.036;2023-05-24T11:25:41;99457.13;;;21.64;63.47
72798;BME280;61084;55.816;37.036;2023-05-24T11:28:11;99464.91;;;21.75;63.35
72798;BME280;61084;55.816;37.036;2023-05-24T11:30:40;99470.66;;;21.90;63.27
72798;BME280;61084;55.816;37.036;2023-05-24T11:33:20;99463.16;;;22.11;63.05
72798;BME280;61084;55.816;37.036;2023-05-24T11:35:50;99466.75;;;22.19;62.44
72798;BME280;61084;55.816;37.036;2023-05-24T11:38:17;99467.22;;;22.32;62.50
72798;BME280;61084;55.816;37.036;2023-05-24T11:40:46;99464.25;;;22.35;60.77
72798;BME280;61084;55.816;37.036;2023-05-24T11:43:13;99464.16;;;22.45;61.58
72798;BME280;61084;55.816;37.036;2023-05-24T11:45:41;99462.53;;;22.52;60.88
72798;BME280;61084;55.816;37.036;2023-05-24T11:48:10;99461.66;;;22.61;60.95
72798;BME280;61084;55.816;37.036;2023-05-24T11:50:38;99467.91;;;22.70;60.68
72798;BME280;61084;55.816;37.036;2023-05-24T11:53:04;99469.47;;;22.80;60.86
72798;BME280;61084;55.816;37.036;2023-05-24T11:55:31;99468.53;;;22.89;60.45
72798;BME280;61084;55.816;37.036;2023-05-24T11:57:57;99468.38;;;22.91;59.76
72798;BME280;61084;55.816;37.036;2023-05-24T12:00:25;99460.53;;;22.97;60.37
72798;BME280;61084;55.816;37.036;2023-05-24T12:02:51;99463.91;;;22.99;59.55
72798;BME280;61084;55.816;37.036;2023-05-24T12:05:18;99455.03;;;22.99;59.55
72798;BME280;61084;55.816;37.036;2023-05-24T12:07:44;99458.06;;;23.04;59.56
72798;BME280;61084;55.816;37.036;2023-05-24T12:10:16;99463.16;;;23.15;59.40
72798;BME280;61084;55.816;37.036;2023-05-24T12:12:45;99461.84;;;23.19;59.19
72798;BME280;61084;55.816;37.036;2023-05-24T12:15:11;99460.31;;;23.16;58.90
72798;BME280;61084;55.816;37.036;2023-05-24T12:17:39;99460.88;;;23.20;59.08
72798;BME280;61084;55.816;37.036;2023-05-24T12:20:08;99454.00;;;23.25;58.67
72798;BME280;61084;55.816;37.036;2023-05-24T12:22:34;99445.97;;;23.25;58.72
72798;BME280;61084;55.816;37.036;2023-05-24T12:25:02;99442.13;;;23.28;58.66
72798;BME280;61084;55.816;37.036;2023-05-24T12:27:30;99432.66;;;23.34;58.84
72798;BME280;61084;55.816;37.036;2023-05-24T12:30:05;99441.22;;;23.37;58.19
72798;BME280;61084;55.816;37.036;2023-05-24T12:32:32;99447.56;;;23.36;58.64
72798;BME280;61084;55.816;37.036;2023-05-24T12:34:57;99440.81;;;23.32;58.32
72798;BME280;61084;55.816;37.036;2023-05-24T12:37:23;99440.13;;;23.30;58.31
72798;BME280;61084;55.816;37.036;2023-05-24T12:39:49;99446.50;;;23.29;58.21
72798;BME280;61084;55.816;37.036;2023-05-24T12:42:15;99452.53;;;23.31;57.98
72798;BME280;61084;55.816;37.036;2023-05-24T12:44:41;99452.69;;;23.30;57.74
72798;BME280;61084;55.816;37.036;2023-05-24T12:47:07;99448.19;;;23.30;58.21
72798;BME280;61084;55.816;37.036;2023-05-24T12:49:33;99448.56;;;23.35;58.57
72798;BME280;61084;55.816;37.036;2023-05-24T12:51:59;99448.84;;;23.32;57.95
72798;BME280;61084;55.816;37.036;2023-05-24T12:54:27;99448.56;;;23.35;57.89
72798;BME280;61084;55.816;37.036;2023-05-24T12:56:54;99448.09;;;23.40;57.95
72798;BME280;61084;55.816;37.036;2023-05-24T12:59:20;99448.44;;;23.45;58.03
72798;BME280;61084;55.816;37.036;2023-05-24T13:01:46;99449.63;;;23.42;57.38
72798;BME280;61084;55.816;37.036;2023-05-24T13:04:20;99442.41;;;23.43;56.91
72798;BME280;61084;55.816;37.036;2023-05-24T13:06:46;99441.41;;;23.44;57.11
72798;BME280;61084;55.816;37.036;2023-05-24T13:09:12;99447.81;;;23.51;56.97
72798;BME280;61084;55.816;37.036;2023-05-24T13:11:38;99450.16;;;23.54;57.03
72798;BME280;61084;55.816;37.036;2023-05-24T13:14:04;99444.47;;;23.57;57.22
72798;BME280;61084;55.816;37.036;2023-05-24T13:16:31;99441.31;;;23.61;56.84
72798;BME280;61084;55.816;37.036;2023-05-24T13:18:58;99447.34;;;23.63;56.39
72798;BME280;61084;55.816;37.036;2023-05-24T13:21:24;99444.66;;;23.63;56.48
72798;BME280;61084;55.816;37.036;2023-05-24T13:23:50;99446.84;;;23.68;56.43
72798;BME280;61084;55.816;37.036;2023-05-24T13:26:16;99447.03;;;23.74;56.32
72798;BME280;61084;55.816;37.036;2023-05-24T13:28:42;99444.38;;;23.82;55.51
72798;BME280;61084;55.816;37.036;2023-05-24T13:31:08;99446.25;;;23.90;56.03
72798;BME280;61084;55.816;37.036;2023-05-24T13:33:34;99457.84;;;23.98;55.82
72798;BME280;61084;55.816;37.036;2023-05-24T13:36:00;99448.00;;;24.07;55.62
72798;BME280;61084;55.816;37.036;2023-05-24T13:38:26;99444.63;;;24.21;55.67
72798;BME280;61084;55.816;37.036;2023-05-24T13:40:53;99448.00;;;24.39;55.15
72798;BME280;61084;55.816;37.036;2023-05-24T13:43:20;99443.97;;;24.43;55.13